createdAt,value
2023-02-15T00:00:13.739Z,51.70
2023-02-15T00:02:42.013Z,51.60
2023-02-15T00:05:11.712Z,51.60
2023-02-15T00:07:39.825Z,51.60
2023-02-15T00:10:09.301Z,51.60
2023-02-15T00:12:37.427Z,51.60
2023-02-15T00:15:05.937Z,51.60
2023-02-15T00:17:34.048Z,51.60
2023-02-15T00:20:02.165Z,51.60
2023-02-15T00:22:31.694Z,51.60
2023-02-15T00:24:59.788Z,51.50
2023-02-15T00:27:27.898Z,51.50
2023-02-15T00:29:56.799Z,51.50
2023-02-15T00:32:25.020Z,51.50
2023-02-15T00:34:53.103Z,51.50
2023-02-15T00:37:21.256Z,51.50
2023-02-15T00:39:50.775Z,51.50
2023-02-15T00:42:19.125Z,51.50
2023-02-15T00:44:47.263Z,51.50
2023-02-15T00:47:15.365Z,51.50
2023-02-15T00:49:43.407Z,51.50
2023-02-15T00:52:11.863Z,51.50
2023-02-15T00:54:40.664Z,51.50
2023-02-15T00:57:10.327Z,51.50
2023-02-15T00:59:38.536Z,51.50
2023-02-15T01:02:06.633Z,51.50
2023-02-15T01:04:34.896Z,51.50
2023-02-15T01:07:04.541Z,51.50
2023-02-15T01:09:34.879Z,51.50
2023-02-15T01:12:04.968Z,51.50
2023-02-15T01:14:34.453Z,51.50
2023-02-15T01:17:02.539Z,51.50
2023-02-15T01:19:30.644Z,51.40
2023-02-15T01:21:58.729Z,51.40
2023-02-15T01:24:26.820Z,51.40
2023-02-15T01:26:57.976Z,51.40
2023-02-15T01:29:28.411Z,51.40
2023-02-15T01:31:58.005Z,51.40
2023-02-15T01:34:26.247Z,51.30
2023-02-15T01:36:54.345Z,51.30
2023-02-15T01:39:22.446Z,51.30
2023-02-15T01:41:52.876Z,51.30
2023-02-15T01:44:48.473Z,51.30
2023-02-15T01:47:22.839Z,51.30
2023-02-15T01:49:56.672Z,51.30
2023-02-15T01:52:26.139Z,51.20
2023-02-15T01:54:54.460Z,51.20
2023-02-15T01:57:26.486Z,51.20
2023-02-15T01:59:59.182Z,51.20
2023-02-15T02:02:29.815Z,51.20
2023-02-15T02:05:04.038Z,51.10
2023-02-15T02:07:35.503Z,51.10
2023-02-15T02:10:05.768Z,51.10
2023-02-15T02:12:37.963Z,51.10
2023-02-15T02:15:06.958Z,51.10
2023-02-15T02:17:47.510Z,51.10
2023-02-15T02:20:34.447Z,51.10
2023-02-15T02:23:23.390Z,51.10
2023-02-15T02:26:24.036Z,51.10
2023-02-15T02:29:23.474Z,51.10
2023-02-15T02:32:23.121Z,51.10
2023-02-15T02:34:57.612Z,51.10
2023-02-15T02:37:31.240Z,51.00
2023-02-15T02:40:10.124Z,51.00
2023-02-15T02:42:42.090Z,51.00
2023-02-15T02:45:14.445Z,51.00
2023-02-15T02:47:48.398Z,51.00
2023-02-15T02:50:20.731Z,51.00
2023-02-15T02:52:50.498Z,51.00
2023-02-15T02:55:22.544Z,51.00
2023-02-15T02:57:56.514Z,51.00
2023-02-15T03:00:27.620Z,51.00
2023-02-15T03:03:05.824Z,51.00
2023-02-15T03:05:39.586Z,51.00
2023-02-15T03:08:10.990Z,51.00
2023-02-15T03:10:42.141Z,50.90
2023-02-15T03:13:10.868Z,50.90
2023-02-15T03:15:58.742Z,50.90
2023-02-15T03:18:32.143Z,50.90
2023-02-15T03:21:03.626Z,50.90
2023-02-15T03:23:34.570Z,50.90
2023-02-15T03:26:05.178Z,50.90
2023-02-15T03:28:41.703Z,50.90
2023-02-15T03:31:12.284Z,50.90
2023-02-15T03:33:44.054Z,50.90
2023-02-15T03:36:20.836Z,50.90
2023-02-15T03:38:55.438Z,50.90
2023-02-15T03:41:27.918Z,50.90
2023-02-15T03:44:00.791Z,50.90
2023-02-15T03:46:33.852Z,50.90
2023-02-15T03:49:07.586Z,50.90
2023-02-15T03:51:39.125Z,50.90
2023-02-15T03:54:10.305Z,50.90
2023-02-15T03:56:40.779Z,50.90
2023-02-15T03:59:26.884Z,50.80
2023-02-15T04:02:13.220Z,50.80
2023-02-15T04:04:45.478Z,50.80
2023-02-15T04:07:15.105Z,50.80
2023-02-15T04:10:00.569Z,50.80
2023-02-15T04:12:28.687Z,50.80
2023-02-15T04:15:13.921Z,50.80
2023-02-15T04:17:42.007Z,50.80
2023-02-15T04:20:28.457Z,50.80
2023-02-15T04:23:15.239Z,50.80
2023-02-15T04:25:43.307Z,50.80
2023-02-15T04:28:11.845Z,50.80
2023-02-15T04:30:39.915Z,50.70
2023-02-15T04:33:08.004Z,50.70
2023-02-15T04:35:36.312Z,50.70
2023-02-15T04:38:05.762Z,50.70
2023-02-15T04:40:33.870Z,50.70
2023-02-15T04:43:02.105Z,50.70
2023-02-15T04:45:30.353Z,50.70
2023-02-15T04:47:58.435Z,50.70
2023-02-15T04:50:26.592Z,50.70
2023-02-15T04:52:54.684Z,50.70
2023-02-15T04:55:24.149Z,50.70
2023-02-15T04:57:52.254Z,50.70
2023-02-15T05:00:22.329Z,50.70
2023-02-15T05:02:50.661Z,50.60
2023-02-15T05:05:19.171Z,50.60
2023-02-15T05:07:47.568Z,50.60
2023-02-15T05:10:15.700Z,50.60
2023-02-15T05:12:45.237Z,50.60
2023-02-15T05:15:13.355Z,50.60
2023-02-15T05:17:41.513Z,50.60
2023-02-15T05:20:10.326Z,50.60
2023-02-15T05:22:38.406Z,50.60
2023-02-15T05:25:24.104Z,50.60
2023-02-15T05:28:11.294Z,50.60
2023-02-15T05:30:40.725Z,50.60
2023-02-15T05:33:09.209Z,50.60
2023-02-15T05:35:38.234Z,50.60
2023-02-15T05:38:06.327Z,50.60
2023-02-15T05:40:34.425Z,50.60
2023-02-15T05:43:03.892Z,50.60
2023-02-15T05:45:32.182Z,50.60
2023-02-15T05:48:00.462Z,50.70
2023-02-15T05:50:28.803Z,50.70
2023-02-15T05:52:56.954Z,50.90
2023-02-15T05:55:25.064Z,51.00
2023-02-15T05:57:53.136Z,51.20
2023-02-15T06:00:28.871Z,51.30
2023-02-15T06:02:57.186Z,51.30
2023-02-15T06:05:25.547Z,51.40
2023-02-15T06:07:53.665Z,51.50
2023-02-15T06:10:21.916Z,51.50
2023-02-15T06:12:49.972Z,51.50
2023-02-15T06:15:18.228Z,51.60
2023-02-15T06:17:47.862Z,51.70
2023-02-15T06:20:16.076Z,51.80
2023-02-15T06:22:44.168Z,51.90
2023-02-15T06:25:12.437Z,51.90
2023-02-15T06:27:43.607Z,52.00
2023-02-15T06:30:13.233Z,52.00
2023-02-15T06:32:42.966Z,52.10
2023-02-15T06:35:12.520Z,52.10
2023-02-15T06:37:40.973Z,52.20
2023-02-15T06:40:10.376Z,52.20
2023-02-15T06:42:38.514Z,52.20
2023-02-15T06:45:08.449Z,52.20
2023-02-15T06:47:36.720Z,52.20
2023-02-15T06:50:05.417Z,52.20
2023-02-15T06:52:35.020Z,52.20
2023-02-15T06:55:03.252Z,52.20
2023-02-15T06:57:31.358Z,52.20
2023-02-15T06:59:59.507Z,52.20
2023-02-15T07:02:27.676Z,52.20
2023-02-15T07:04:55.982Z,52.10
2023-02-15T07:07:25.148Z,52.10
2023-02-15T07:09:54.616Z,52.00
2023-02-15T07:12:40.279Z,52.00
2023-02-15T07:15:10.078Z,52.00
2023-02-15T07:17:38.420Z,52.20
2023-02-15T07:20:09.771Z,52.40
2023-02-15T07:22:38.222Z,52.50
2023-02-15T07:25:10.525Z,52.50
2023-02-15T07:27:38.778Z,52.40
2023-02-15T07:30:11.973Z,52.40
2023-02-15T07:33:00.625Z,52.30
2023-02-15T07:35:34.842Z,52.30
2023-02-15T07:38:03.212Z,52.30
2023-02-15T07:40:32.681Z,52.50
2023-02-15T07:43:02.007Z,52.60
2023-02-15T07:45:30.412Z,52.60
2023-02-15T07:47:58.491Z,52.70
2023-02-15T07:50:26.624Z,52.60
2023-02-15T07:52:54.755Z,52.60
2023-02-15T07:55:23.143Z,52.60
2023-02-15T07:57:54.951Z,52.60
2023-02-15T08:00:26.167Z,52.50
2023-02-15T08:03:10.855Z,52.50
2023-02-15T08:05:39.552Z,52.40
2023-02-15T08:08:07.722Z,52.40
2023-02-15T08:10:54.426Z,52.30
2023-02-15T08:13:23.897Z,52.20
2023-02-15T08:15:52.639Z,52.10
2023-02-15T08:18:20.887Z,52.10
2023-02-15T08:20:51.677Z,51.90
2023-02-15T08:23:20.416Z,51.90
2023-02-15T08:25:48.549Z,51.80
2023-02-15T08:28:16.672Z,51.80
2023-02-15T08:30:46.168Z,51.70
2023-02-15T08:33:14.316Z,51.60
2023-02-15T08:35:42.759Z,51.60
2023-02-15T08:38:10.863Z,51.60
2023-02-15T08:40:39.152Z,51.60
2023-02-15T08:43:08.102Z,51.50
2023-02-15T08:45:36.279Z,51.50
2023-02-15T08:48:05.980Z,51.40
2023-02-15T08:50:34.233Z,51.40
2023-02-15T08:53:02.415Z,51.40
2023-02-15T08:55:30.565Z,51.40
2023-02-15T08:57:59.502Z,51.40
2023-02-15T09:00:27.736Z,51.40
2023-02-15T09:02:56.142Z,51.40
2023-02-15T09:05:25.617Z,51.40
2023-02-15T09:07:53.726Z,51.40
2023-02-15T09:10:22.089Z,51.40
2023-02-15T09:12:51.152Z,51.40
2023-02-15T09:15:19.364Z,51.40
2023-02-15T09:17:47.448Z,51.40
2023-02-15T09:20:15.598Z,51.40
2023-02-15T09:22:45.293Z,51.40
2023-02-15T09:25:14.538Z,51.30
2023-02-15T09:27:43.178Z,51.30
2023-02-15T09:30:12.351Z,51.30
2023-02-15T09:32:40.606Z,51.50
2023-02-15T09:35:09.259Z,51.50
2023-02-15T09:37:37.364Z,51.50
2023-02-15T09:40:08.223Z,51.50
2023-02-15T09:43:00.671Z,51.50
2023-02-15T09:45:37.168Z,51.50
2023-02-15T09:48:34.996Z,51.50
2023-02-15T09:51:24.991Z,51.50
2023-02-15T09:54:11.923Z,51.50
2023-02-15T09:56:48.383Z,51.50
2023-02-15T09:59:26.414Z,51.40
2023-02-15T10:02:06.288Z,51.40
2023-02-15T10:04:51.804Z,51.40
2023-02-15T10:07:36.484Z,51.40
2023-02-15T10:10:15.703Z,51.50
2023-02-15T10:12:59.655Z,51.40
2023-02-15T10:15:40.942Z,51.40
2023-02-15T10:18:21.559Z,51.40
2023-02-15T10:20:58.614Z,51.50
2023-02-15T10:23:49.076Z,51.50
2023-02-15T10:26:23.666Z,51.50
2023-02-15T10:28:55.428Z,51.50
2023-02-15T10:31:27.413Z,51.50
2023-02-15T10:34:14.676Z,51.40
2023-02-15T10:37:00.805Z,51.20
2023-02-15T10:39:36.379Z,51.10
2023-02-15T10:42:13.795Z,51.00
2023-02-15T10:44:58.871Z,51.10
2023-02-15T10:47:44.425Z,51.10
2023-02-15T10:50:24.441Z,51.00
2023-02-15T10:53:05.461Z,51.00
2023-02-15T10:55:48.059Z,51.00
2023-02-15T10:58:26.997Z,50.90
2023-02-15T11:01:02.976Z,50.90
2023-02-15T11:03:44.504Z,50.90
2023-02-15T11:06:15.951Z,50.80
2023-02-15T11:08:47.020Z,50.90
2023-02-15T11:11:22.374Z,50.60
2023-02-15T11:13:55.076Z,50.90
2023-02-15T11:16:30.094Z,51.00
2023-02-15T11:22:58.348Z,50.80
2023-02-15T11:25:31.149Z,50.70
2023-02-15T11:28:00.714Z,50.80
2023-02-15T11:30:36.783Z,50.80
2023-02-15T11:33:08.391Z,50.80
2023-02-15T11:35:43.071Z,50.90
2023-02-15T11:38:18.547Z,50.90
2023-02-15T11:40:50.523Z,50.90
2023-02-15T11:43:22.996Z,50.80
2023-02-15T11:45:51.347Z,50.60
2023-02-15T11:48:20.846Z,50.40
2023-02-15T11:50:49.039Z,50.30
2023-02-15T11:53:19.184Z,50.30
2023-02-15T11:55:49.496Z,50.30
2023-02-15T11:58:30.783Z,50.50
2023-02-15T12:01:04.743Z,50.50
2023-02-15T12:03:46.669Z,50.50
2023-02-15T12:06:22.054Z,50.70
2023-02-15T12:08:57.873Z,51.90
2023-02-15T12:11:32.439Z,51.80
2023-02-15T12:14:03.802Z,50.90
2023-02-15T12:16:36.930Z,50.30
2023-02-15T12:19:06.577Z,50.00
2023-02-15T12:21:43.076Z,50.10
2023-02-15T12:24:19.699Z,49.90
2023-02-15T12:26:59.643Z,49.80
2023-02-15T12:29:31.361Z,49.70
2023-02-15T12:32:00.302Z,49.60
2023-02-15T12:34:40.601Z,49.50
2023-02-15T12:37:17.085Z,49.40
2023-02-15T12:39:54.680Z,49.20
2023-02-15T12:42:22.902Z,49.10
2023-02-15T12:45:02.138Z,49.00
2023-02-15T12:47:32.181Z,49.00
2023-02-15T12:50:34.679Z,49.00
2023-02-15T12:53:09.888Z,48.70
2023-02-15T12:55:45.281Z,48.50
2023-02-15T12:58:19.465Z,48.20
2023-02-15T13:00:48.328Z,48.30
2023-02-15T13:03:20.876Z,48.20
2023-02-15T13:05:54.162Z,48.20
2023-02-15T13:08:27.842Z,48.10
2023-02-15T13:10:58.051Z,48.10
2023-02-15T13:13:29.883Z,48.10
2023-02-15T13:16:01.786Z,48.20
2023-02-15T13:18:34.661Z,48.20
2023-02-15T13:21:12.296Z,48.10
2023-02-15T13:23:44.173Z,48.20
2023-02-15T13:26:18.460Z,48.20
2023-02-15T13:28:49.376Z,48.20
2023-02-15T13:31:20.136Z,48.20
2023-02-15T13:33:52.732Z,48.10
2023-02-15T13:36:30.094Z,48.20
2023-02-15T13:39:11.757Z,48.20
2023-02-15T13:41:53.362Z,48.50
2023-02-15T13:44:47.520Z,48.70
2023-02-15T13:47:25.258Z,48.70
2023-02-15T13:50:10.370Z,48.80
2023-02-15T13:52:48.233Z,48.90
2023-02-15T13:55:29.552Z,49.00
2023-02-15T13:58:25.208Z,49.00
2023-02-15T14:01:03.506Z,49.00
2023-02-15T14:03:55.930Z,49.10
2023-02-15T14:06:52.198Z,49.20
2023-02-15T14:09:33.020Z,49.30
2023-02-15T14:12:22.574Z,49.30
2023-02-15T14:15:06.061Z,49.30
2023-02-15T14:17:48.614Z,49.30
2023-02-15T14:20:23.838Z,49.40
2023-02-15T14:22:58.147Z,49.50
2023-02-15T14:25:32.679Z,49.50
2023-02-15T14:28:07.803Z,49.60
2023-02-15T14:30:39.017Z,49.70
2023-02-15T14:33:09.895Z,49.70
2023-02-15T14:35:39.241Z,49.80
2023-02-15T14:38:16.959Z,49.80
2023-02-15T14:41:03.464Z,49.90
2023-02-15T14:43:49.337Z,49.90
2023-02-15T14:46:25.621Z,50.10
2023-02-15T14:48:56.856Z,50.10
2023-02-15T14:51:57.833Z,50.20
2023-02-15T14:55:01.056Z,50.20
2023-02-15T14:57:35.947Z,50.30
2023-02-15T15:00:38.983Z,50.40
2023-02-15T15:03:24.163Z,50.50
2023-02-15T15:05:55.752Z,50.70
2023-02-15T15:08:30.792Z,50.70
2023-02-15T15:10:58.901Z,50.80
2023-02-15T15:13:55.217Z,50.00
2023-02-15T15:16:46.354Z,49.70
2023-02-15T15:19:50.720Z,49.60
2023-02-15T15:22:21.554Z,49.50
2023-02-15T15:24:53.155Z,49.50
2023-02-15T15:27:54.890Z,49.50
2023-02-15T15:31:02.873Z,49.50
2023-02-15T15:34:18.976Z,49.50
2023-02-15T15:37:32.731Z,49.70
2023-02-15T15:40:31.077Z,49.70
2023-02-15T15:43:35.056Z,49.70
2023-02-15T15:46:36.396Z,49.80
2023-02-15T15:49:08.725Z,50.00
2023-02-15T15:51:41.031Z,49.90
2023-02-15T15:54:18.314Z,50.00
2023-02-15T15:56:50.613Z,49.90
2023-02-15T15:59:23.728Z,49.80
2023-02-15T16:01:52.042Z,49.80
2023-02-15T16:04:28.232Z,49.70
2023-02-15T16:06:57.314Z,49.70
2023-02-15T16:09:29.103Z,49.70
2023-02-15T16:12:01.387Z,49.80
2023-02-15T16:14:33.763Z,50.00
2023-02-15T16:17:06.223Z,50.00
2023-02-15T16:19:36.912Z,50.00
2023-02-15T16:22:08.371Z,50.00
2023-02-15T16:25:17.909Z,50.10
2023-02-15T16:27:48.246Z,50.20
2023-02-15T16:30:25.863Z,50.20
2023-02-15T16:33:06.445Z,50.20
2023-02-15T16:35:35.999Z,50.80
2023-02-15T16:38:04.711Z,51.10
2023-02-15T16:40:53.220Z,51.30
2023-02-15T16:43:27.980Z,50.80
2023-02-15T16:46:05.472Z,50.80
2023-02-15T16:48:35.600Z,51.30
2023-02-15T16:51:04.296Z,51.50
2023-02-15T16:53:32.694Z,51.70
2023-02-15T16:56:03.800Z,51.80
2023-02-15T16:58:39.924Z,51.90
2023-02-15T17:01:12.034Z,52.10
2023-02-15T17:03:41.774Z,52.10
2023-02-15T17:06:23.334Z,52.30
2023-02-15T17:08:51.509Z,52.10
2023-02-15T17:11:22.050Z,52.40
2023-02-15T17:14:21.819Z,52.20
2023-02-15T17:16:52.287Z,51.50
2023-02-15T17:19:24.947Z,51.90
2023-02-15T17:21:55.908Z,51.90
2023-02-15T17:24:33.666Z,52.00
2023-02-15T17:27:05.743Z,51.90
2023-02-15T17:29:38.453Z,52.00
2023-02-15T17:32:14.258Z,51.80
2023-02-15T17:35:11.155Z,51.70
2023-02-15T17:37:49.816Z,51.60
2023-02-15T17:40:24.653Z,51.50
2023-02-15T17:42:53.267Z,51.50
2023-02-15T17:45:24.199Z,51.40
2023-02-15T17:47:52.817Z,51.30
2023-02-15T17:50:23.231Z,51.20
2023-02-15T17:52:51.720Z,51.30
2023-02-15T17:55:39.147Z,51.20
2023-02-15T17:58:09.841Z,51.20
2023-02-15T18:01:00.449Z,51.20
2023-02-15T18:03:57.594Z,51.30
2023-02-15T18:06:43.552Z,51.30
2023-02-15T18:09:30.918Z,51.20
2023-02-15T18:11:59.503Z,51.10
2023-02-15T18:14:28.167Z,51.00
2023-02-15T18:16:57.908Z,50.90
2023-02-15T18:19:27.819Z,50.90
2023-02-15T18:21:57.808Z,50.90
2023-02-15T18:24:28.183Z,51.00
2023-02-15T18:26:56.618Z,50.90
2023-02-15T18:29:24.709Z,51.00
2023-02-15T18:31:56.952Z,51.00
2023-02-15T18:34:30.557Z,51.10
2023-02-15T18:37:00.966Z,51.10
2023-02-15T18:39:36.936Z,51.10
2023-02-15T18:42:05.621Z,51.10
2023-02-15T18:44:33.921Z,51.20
2023-02-15T18:47:02.053Z,51.10
2023-02-15T18:49:31.516Z,51.10
2023-02-15T18:51:59.682Z,51.10
2023-02-15T18:54:27.827Z,51.00
2023-02-15T18:56:58.396Z,50.90
2023-02-15T18:59:28.197Z,50.90
2023-02-15T19:01:56.823Z,50.90
2023-02-15T19:04:25.987Z,50.90
2023-02-15T19:06:55.986Z,50.90
2023-02-15T19:09:26.188Z,50.80
2023-02-15T19:11:57.393Z,50.80
2023-02-15T19:14:28.326Z,50.90
2023-02-15T19:16:57.364Z,51.00
2023-02-15T19:19:25.606Z,51.10
2023-02-15T19:21:55.992Z,51.10
2023-02-15T19:24:29.979Z,51.20
2023-02-15T19:26:58.105Z,51.30
2023-02-15T19:29:28.924Z,51.30
2023-02-15T19:31:57.990Z,51.40
2023-02-15T19:34:26.275Z,51.40
2023-02-15T19:36:57.659Z,51.40
2023-02-15T19:39:29.813Z,51.50
2023-02-15T19:41:58.170Z,51.50
2023-02-15T19:44:26.368Z,51.50
2023-02-15T19:46:54.500Z,51.60
2023-02-15T19:49:22.803Z,51.60
2023-02-15T19:51:51.020Z,51.60
2023-02-15T19:54:30.673Z,51.70
2023-02-15T19:56:59.149Z,51.70
2023-02-15T19:59:29.745Z,51.70
2023-02-15T20:01:58.495Z,51.70
2023-02-15T20:04:27.679Z,51.70
2023-02-15T20:06:57.756Z,51.70
2023-02-15T20:09:30.912Z,51.60
2023-02-15T20:12:01.457Z,51.60
2023-02-15T20:14:33.278Z,51.60
2023-02-15T20:17:01.492Z,51.60
2023-02-15T20:19:29.658Z,51.60
2023-02-15T20:22:01.740Z,51.60
2023-02-15T20:24:32.288Z,51.60
2023-02-15T20:27:00.637Z,51.70
2023-02-15T20:29:28.859Z,51.70
2023-02-15T20:32:01.100Z,51.80
2023-02-15T20:34:29.334Z,51.90
2023-02-15T20:36:57.429Z,52.10
2023-02-15T20:39:27.220Z,52.30
2023-02-15T20:41:59.699Z,52.50
2023-02-15T20:44:29.688Z,52.70
2023-02-15T20:47:01.495Z,52.80
2023-02-15T20:49:29.663Z,52.90
2023-02-15T20:51:58.699Z,53.00
2023-02-15T20:54:28.156Z,53.10
2023-02-15T20:56:56.373Z,53.10
2023-02-15T20:59:30.484Z,53.20
2023-02-15T21:02:00.852Z,53.20
2023-02-15T21:04:33.627Z,53.20
2023-02-15T21:07:02.336Z,53.30
2023-02-15T21:09:31.138Z,53.30
2023-02-15T21:12:02.306Z,53.30
2023-02-15T21:14:31.848Z,53.30
2023-02-15T21:17:00.341Z,53.30
2023-02-15T21:19:28.924Z,53.40
2023-02-15T21:21:58.046Z,53.50
2023-02-15T21:24:28.091Z,53.50
2023-02-15T21:26:57.292Z,53.40
2023-02-15T21:29:28.364Z,53.40
2023-02-15T21:32:00.433Z,53.30
2023-02-15T21:34:28.830Z,53.30
2023-02-15T21:36:57.236Z,53.20
2023-02-15T21:39:27.092Z,53.20
2023-02-15T21:42:14.434Z,53.20
2023-02-15T21:45:00.200Z,53.10
2023-02-15T21:47:49.301Z,52.90
2023-02-15T21:50:36.329Z,52.90
2023-02-15T21:53:05.437Z,52.90
2023-02-15T21:55:34.010Z,52.70
2023-02-15T21:58:02.730Z,52.60
2023-02-15T22:00:32.666Z,52.50
2023-02-15T22:03:02.736Z,52.30
2023-02-15T22:05:33.264Z,52.30
2023-02-15T22:08:01.704Z,52.30
2023-02-15T22:10:32.110Z,52.30
2023-02-15T22:13:01.704Z,52.00
2023-02-15T22:15:35.682Z,51.90
2023-02-15T22:18:06.156Z,51.70
2023-02-15T22:20:34.328Z,51.70
2023-02-15T22:23:02.439Z,51.60
2023-02-15T22:25:30.549Z,51.80
2023-02-15T22:27:58.786Z,51.80
2023-02-15T22:30:29.473Z,51.80
2023-02-15T22:32:59.130Z,51.80
2023-02-15T22:35:30.857Z,51.70
2023-02-15T22:37:59.218Z,51.70
2023-02-15T22:40:31.041Z,51.60
2023-02-15T22:43:02.925Z,51.60
2023-02-15T22:45:32.871Z,51.50
2023-02-15T22:48:01.837Z,51.50
2023-02-15T22:50:33.845Z,51.40
2023-02-15T22:53:03.719Z,51.40
2023-02-15T22:55:34.506Z,51.40
2023-02-15T22:58:03.354Z,51.40
2023-02-15T23:00:37.700Z,51.30
2023-02-15T23:03:15.025Z,51.30
2023-02-15T23:05:44.855Z,51.30
2023-02-15T23:08:13.813Z,51.30
2023-02-15T23:10:44.383Z,51.30
2023-02-15T23:13:25.947Z,51.30
2023-02-15T23:15:58.438Z,51.30
2023-02-15T23:18:29.983Z,51.30
2023-02-15T23:21:03.071Z,51.30
2023-02-15T23:23:34.567Z,51.30
2023-02-15T23:26:04.691Z,51.20
2023-02-15T23:28:36.204Z,51.20
2023-02-15T23:31:07.429Z,51.20
2023-02-15T23:33:36.671Z,51.20
2023-02-15T23:36:06.738Z,51.10
2023-02-15T23:38:34.866Z,51.10
2023-02-15T23:41:22.872Z,51.10
2023-02-15T23:43:55.913Z,51.10
2023-02-15T23:46:29.847Z,51.10
2023-02-15T23:48:58.534Z,51.00
2023-02-15T23:51:32.066Z,51.00
2023-02-15T23:54:00.221Z,50.90
2023-02-15T23:56:28.327Z,50.80
2023-02-15T23:58:56.468Z,50.80
